sensor_id;sensor_type;location;lat;lon;timestamp;P1;durP1;ratioP1;P2;durP2;ratioP2
9142;SDS011;54072;47.410;8.446;2023-04-21T00:01:09;10.80;;;7.17;;
9142;SDS011;54072;47.410;8.446;2023-04-21T00:03:37;11.17;;;7.27;;
9142;SDS011;54072;47.410;8.446;2023-04-21T00:06:07;10.07;;;6.87;;
9142;SDS011;54072;47.410;8.446;2023-04-21T00:08:34;11.83;;;7.37;;
9142;SDS011;54072;47.410;8.446;2023-04-21T00:11:05;10.13;;;7.70;;
9142;SDS011;54072;47.410;8.446;2023-04-21T00:13:33;11.90;;;7.33;;
9142;SDS011;54072;47.410;8.446;2023-04-21T00:16:02;8.57;;;6.27;;
9142;SDS011;54072;47.410;8.446;2023-04-21T00:18:30;9.77;;;6.73;;
9142;SDS011;54072;47.410;8.446;2023-04-21T00:20:58;8.17;;;6.53;;
9142;SDS011;54072;47.410;8.446;2023-04-21T00:23:25;9.47;;;6.87;;
9142;SDS011;54072;47.410;8.446;2023-04-21T00:25:53;11.33;;;7.07;;
9142;SDS011;54072;47.410;8.446;2023-04-21T00:28:20;10.93;;;6.77;;
9142;SDS011;54072;47.410;8.446;2023-04-21T00:30:49;9.57;;;6.90;;
9142;SDS011;54072;47.410;8.446;2023-04-21T00:33:18;11.47;;;7.53;;
9142;SDS011;54072;47.410;8.446;2023-04-21T00:35:46;9.10;;;6.93;;
9142;SDS011;54072;47.410;8.446;2023-04-21T00:38:13;10.50;;;7.30;;
9142;SDS011;54072;47.410;8.446;2023-04-21T00:40:41;12.03;;;7.47;;
9142;SDS011;54072;47.410;8.446;2023-04-21T00:43:08;15.73;;;8.83;;
9142;SDS011;54072;47.410;8.446;2023-04-21T00:45:36;11.10;;;7.70;;
9142;SDS011;54072;47.410;8.446;2023-04-21T00:48:03;13.87;;;8.43;;
9142;SDS011;54072;47.410;8.446;2023-04-21T00:50:32;14.80;;;8.00;;
9142;SDS011;54072;47.410;8.446;2023-04-21T00:53:00;12.93;;;7.50;;
9142;SDS011;54072;47.410;8.446;2023-04-21T00:55:27;12.83;;;7.90;;
9142;SDS011;54072;47.410;8.446;2023-04-21T00:57:56;11.87;;;7.40;;
9142;SDS011;54072;47.410;8.446;2023-04-21T01:00:24;15.93;;;8.30;;
9142;SDS011;54072;47.410;8.446;2023-04-21T01:02:51;12.93;;;8.13;;
9142;SDS011;54072;47.410;8.446;2023-04-21T01:05:19;13.27;;;7.73;;
9142;SDS011;54072;47.410;8.446;2023-04-21T01:07:48;11.70;;;7.97;;
9142;SDS011;54072;47.410;8.446;2023-04-21T01:10:15;16.63;;;8.73;;
9142;SDS011;54072;47.410;8.446;2023-04-21T01:12:43;14.83;;;8.43;;
9142;SDS011;54072;47.410;8.446;2023-04-21T01:15:11;15.47;;;8.70;;
9142;SDS011;54072;47.410;8.446;2023-04-21T01:17:39;14.20;;;8.60;;
9142;SDS011;54072;47.410;8.446;2023-04-21T01:20:07;14.00;;;9.00;;
9142;SDS011;54072;47.410;8.446;2023-04-21T01:22:37;15.40;;;9.20;;
9142;SDS011;54072;47.410;8.446;2023-04-21T01:25:05;14.77;;;9.23;;
9142;SDS011;54072;47.410;8.446;2023-04-21T01:27:33;15.03;;;9.20;;
9142;SDS011;54072;47.410;8.446;2023-04-21T01:30:01;12.60;;;8.33;;
9142;SDS011;54072;47.410;8.446;2023-04-21T01:32:28;15.40;;;10.00;;
9142;SDS011;54072;47.410;8.446;2023-04-21T01:34:57;14.70;;;9.23;;
9142;SDS011;54072;47.410;8.446;2023-04-21T01:37:28;14.17;;;9.30;;
9142;SDS011;54072;47.410;8.446;2023-04-21T01:39:58;16.00;;;9.43;;
9142;SDS011;54072;47.410;8.446;2023-04-21T01:42:27;14.50;;;9.33;;
9142;SDS011;54072;47.410;8.446;2023-04-21T01:44:55;15.53;;;9.50;;
9142;SDS011;54072;47.410;8.446;2023-04-21T01:47:22;17.60;;;9.87;;
9142;SDS011;54072;47.410;8.446;2023-04-21T01:49:50;14.10;;;9.27;;
9142;SDS011;54072;47.410;8.446;2023-04-21T01:52:18;15.57;;;10.40;;
9142;SDS011;54072;47.410;8.446;2023-04-21T01:54:46;18.10;;;11.07;;
9142;SDS011;54072;47.410;8.446;2023-04-21T01:57:15;15.60;;;10.40;;
9142;SDS011;54072;47.410;8.446;2023-04-21T01:59:43;16.67;;;10.13;;
9142;SDS011;54072;47.410;8.446;2023-04-21T02:02:11;17.83;;;10.33;;
9142;SDS011;54072;47.410;8.446;2023-04-21T02:04:38;19.10;;;11.00;;
9142;SDS011;54072;47.410;8.446;2023-04-21T02:07:06;18.20;;;10.33;;
9142;SDS011;54072;47.410;8.446;2023-04-21T02:09:33;16.50;;;9.93;;
9142;SDS011;54072;47.410;8.446;2023-04-21T02:12:01;16.87;;;10.43;;
9142;SDS011;54072;47.410;8.446;2023-04-21T02:14:30;22.37;;;10.47;;
9142;SDS011;54072;47.410;8.446;2023-04-21T02:16:58;15.80;;;10.00;;
9142;SDS011;54072;47.410;8.446;2023-04-21T02:19:25;18.43;;;10.63;;
9142;SDS011;54072;47.410;8.446;2023-04-21T02:21:53;16.40;;;10.53;;
9142;SDS011;54072;47.410;8.446;2023-04-21T02:24:21;18.63;;;10.67;;
9142;SDS011;54072;47.410;8.446;2023-04-21T02:26:48;16.00;;;9.33;;
9142;SDS011;54072;47.410;8.446;2023-04-21T02:29:16;14.83;;;9.50;;
9142;SDS011;54072;47.410;8.446;2023-04-21T02:31:45;15.13;;;9.83;;
9142;SDS011;54072;47.410;8.446;2023-04-21T02:34:19;13.93;;;9.10;;
9142;SDS011;54072;47.410;8.446;2023-04-21T02:36:47;16.73;;;10.20;;
9142;SDS011;54072;47.410;8.446;2023-04-21T02:39:14;15.43;;;9.80;;
9142;SDS011;54072;47.410;8.446;2023-04-21T02:41:42;16.27;;;10.03;;
9142;SDS011;54072;47.410;8.446;2023-04-21T02:44:10;14.73;;;10.00;;
9142;SDS011;54072;47.410;8.446;2023-04-21T02:46:38;15.90;;;9.93;;
9142;SDS011;54072;47.410;8.446;2023-04-21T02:49:07;15.03;;;9.47;;
9142;SDS011;54072;47.410;8.446;2023-04-21T02:51:35;14.40;;;9.60;;
9142;SDS011;54072;47.410;8.446;2023-04-21T02:54:03;17.10;;;10.23;;
9142;SDS011;54072;47.410;8.446;2023-04-21T02:56:31;15.03;;;9.50;;
9142;SDS011;54072;47.410;8.446;2023-04-21T02:58:59;14.30;;;9.20;;
9142;SDS011;54072;47.410;8.446;2023-04-21T03:01:27;14.67;;;9.47;;
9142;SDS011;54072;47.410;8.446;2023-04-21T03:03:54;12.13;;;8.77;;
9142;SDS011;54072;47.410;8.446;2023-04-21T03:06:23;13.03;;;9.13;;
9142;SDS011;54072;47.410;8.446;2023-04-21T03:08:52;14.20;;;9.20;;
9142;SDS011;54072;47.410;8.446;2023-04-21T03:11:20;12.63;;;8.70;;
9142;SDS011;54072;47.410;8.446;2023-04-21T03:13:47;11.73;;;8.60;;
9142;SDS011;54072;47.410;8.446;2023-04-21T03:16:15;13.70;;;9.00;;
9142;SDS011;54072;47.410;8.446;2023-04-21T03:18:43;13.73;;;8.23;;
9142;SDS011;54072;47.410;8.446;2023-04-21T03:21:10;11.67;;;8.63;;
9142;SDS011;54072;47.410;8.446;2023-04-21T03:23:39;13.63;;;9.30;;
9142;SDS011;54072;47.410;8.446;2023-04-21T03:26:07;13.03;;;8.97;;
9142;SDS011;54072;47.410;8.446;2023-04-21T03:28:34;13.97;;;9.43;;
9142;SDS011;54072;47.410;8.446;2023-04-21T03:31:02;13.13;;;8.73;;
9142;SDS011;54072;47.410;8.446;2023-04-21T03:33:29;12.23;;;8.77;;
9142;SDS011;54072;47.410;8.446;2023-04-21T03:35:57;14.03;;;8.87;;
9142;SDS011;54072;47.410;8.446;2023-04-21T03:38:27;11.73;;;8.50;;
9142;SDS011;54072;47.410;8.446;2023-04-21T03:40:56;11.57;;;8.50;;
9142;SDS011;54072;47.410;8.446;2023-04-21T03:43:23;13.93;;;8.53;;
9142;SDS011;54072;47.410;8.446;2023-04-21T03:45:51;15.07;;;9.30;;
9142;SDS011;54072;47.410;8.446;2023-04-21T03:48:18;12.30;;;8.83;;
9142;SDS011;54072;47.410;8.446;2023-04-21T03:50:46;12.33;;;8.67;;
9142;SDS011;54072;47.410;8.446;2023-04-21T03:53:13;13.27;;;9.00;;
9142;SDS011;54072;47.410;8.446;2023-04-21T03:55:40;12.60;;;8.90;;
9142;SDS011;54072;47.410;8.446;2023-04-21T03:58:09;12.43;;;8.70;;
9142;SDS011;54072;47.410;8.446;2023-04-21T04:00:37;12.33;;;9.00;;
9142;SDS011;54072;47.410;8.446;2023-04-21T04:03:04;14.17;;;9.70;;
9142;SDS011;54072;47.410;8.446;2023-04-21T04:05:34;14.13;;;9.83;;
9142;SDS011;54072;47.410;8.446;2023-04-21T04:08:01;14.27;;;9.77;;
9142;SDS011;54072;47.410;8.446;2023-04-21T04:10:29;13.13;;;9.30;;
9142;SDS011;54072;47.410;8.446;2023-04-21T04:12:57;14.63;;;9.10;;
9142;SDS011;54072;47.410;8.446;2023-04-21T04:15:26;15.33;;;10.03;;
9142;SDS011;54072;47.410;8.446;2023-04-21T04:17:53;15.77;;;9.23;;
9142;SDS011;54072;47.410;8.446;2023-04-21T04:20:21;13.17;;;9.20;;
9142;SDS011;54072;47.410;8.446;2023-04-21T04:22:48;14.47;;;9.60;;
9142;SDS011;54072;47.410;8.446;2023-04-21T04:25:16;15.30;;;9.87;;
9142;SDS011;54072;47.410;8.446;2023-04-21T04:27:43;14.33;;;9.67;;
9142;SDS011;54072;47.410;8.446;2023-04-21T04:30:11;16.80;;;9.67;;
9142;SDS011;54072;47.410;8.446;2023-04-21T04:32:40;14.47;;;9.30;;
9142;SDS011;54072;47.410;8.446;2023-04-21T04:35:08;13.57;;;9.23;;
9142;SDS011;54072;47.410;8.446;2023-04-21T04:37:38;14.37;;;9.43;;
9142;SDS011;54072;47.410;8.446;2023-04-21T04:40:06;12.53;;;9.10;;
9142;SDS011;54072;47.410;8.446;2023-04-21T04:42:36;16.33;;;10.20;;
9142;SDS011;54072;47.410;8.446;2023-04-21T04:45:05;14.10;;;9.67;;
9142;SDS011;54072;47.410;8.446;2023-04-21T04:47:33;15.73;;;9.50;;
9142;SDS011;54072;47.410;8.446;2023-04-21T04:50:02;13.97;;;9.60;;
9142;SDS011;54072;47.410;8.446;2023-04-21T04:52:30;15.90;;;9.63;;
9142;SDS011;54072;47.410;8.446;2023-04-21T04:54:57;14.53;;;9.47;;
9142;SDS011;54072;47.410;8.446;2023-04-21T04:57:25;15.27;;;9.70;;
9142;SDS011;54072;47.410;8.446;2023-04-21T04:59:53;14.20;;;9.03;;
9142;SDS011;54072;47.410;8.446;2023-04-21T05:02:21;15.63;;;10.10;;
9142;SDS011;54072;47.410;8.446;2023-04-21T05:04:49;13.63;;;8.97;;
9142;SDS011;54072;47.410;8.446;2023-04-21T05:07:18;14.27;;;9.10;;
9142;SDS011;54072;47.410;8.446;2023-04-21T05:09:46;13.77;;;9.20;;
9142;SDS011;54072;47.410;8.446;2023-04-21T05:12:13;14.10;;;9.23;;
9142;SDS011;54072;47.410;8.446;2023-04-21T05:14:41;14.97;;;9.17;;
9142;SDS011;54072;47.410;8.446;2023-04-21T05:17:08;14.40;;;9.80;;
9142;SDS011;54072;47.410;8.446;2023-04-21T05:19:36;14.17;;;9.60;;
9142;SDS011;54072;47.410;8.446;2023-04-21T05:22:03;13.87;;;9.20;;
9142;SDS011;54072;47.410;8.446;2023-04-21T05:24:33;14.77;;;8.83;;
9142;SDS011;54072;47.410;8.446;2023-04-21T05:27:01;14.90;;;9.10;;
9142;SDS011;54072;47.410;8.446;2023-04-21T05:29:29;12.37;;;8.97;;
9142;SDS011;54072;47.410;8.446;2023-04-21T05:31:56;16.80;;;9.73;;
9142;SDS011;54072;47.410;8.446;2023-04-21T05:34:24;13.20;;;9.00;;
9142;SDS011;54072;47.410;8.446;2023-04-21T05:36:51;15.23;;;9.77;;
9142;SDS011;54072;47.410;8.446;2023-04-21T05:39:19;13.83;;;9.83;;
9142;SDS011;54072;47.410;8.446;2023-04-21T05:41:48;14.57;;;9.30;;
9142;SDS011;54072;47.410;8.446;2023-04-21T05:44:15;12.73;;;9.57;;
9142;SDS011;54072;47.410;8.446;2023-04-21T05:46:43;14.60;;;9.17;;
9142;SDS011;54072;47.410;8.446;2023-04-21T05:49:11;13.37;;;8.60;;
9142;SDS011;54072;47.410;8.446;2023-04-21T05:51:38;12.37;;;8.30;;
9142;SDS011;54072;47.410;8.446;2023-04-21T05:54:06;11.40;;;8.47;;
9142;SDS011;54072;47.410;8.446;2023-04-21T05:56:33;10.97;;;7.93;;
9142;SDS011;54072;47.410;8.446;2023-04-21T05:59:02;11.30;;;7.87;;
9142;SDS011;54072;47.410;8.446;2023-04-21T06:01:32;11.97;;;8.60;;
9142;SDS011;54072;47.410;8.446;2023-04-21T06:03:59;13.37;;;8.83;;
9142;SDS011;54072;47.410;8.446;2023-04-21T06:06:27;12.50;;;8.67;;
9142;SDS011;54072;47.410;8.446;2023-04-21T06:08:54;12.17;;;8.40;;
9142;SDS011;54072;47.410;8.446;2023-04-21T06:11:22;13.23;;;9.20;;
9142;SDS011;54072;47.410;8.446;2023-04-21T06:13:50;12.07;;;8.77;;
9142;SDS011;54072;47.410;8.446;2023-04-21T06:16:20;11.90;;;8.40;;
9142;SDS011;54072;47.410;8.446;2023-04-21T06:18:47;10.73;;;7.90;;
9142;SDS011;54072;47.410;8.446;2023-04-21T06:21:15;10.40;;;7.83;;
9142;SDS011;54072;47.410;8.446;2023-04-21T06:23:42;13.10;;;8.30;;
9142;SDS011;54072;47.410;8.446;2023-04-21T06:26:10;10.60;;;8.17;;
9142;SDS011;54072;47.410;8.446;2023-04-21T06:28:38;10.93;;;7.90;;
9142;SDS011;54072;47.410;8.446;2023-04-21T06:31:06;11.40;;;7.63;;
9142;SDS011;54072;47.410;8.446;2023-04-21T06:33:36;10.70;;;7.93;;
9142;SDS011;54072;47.410;8.446;2023-04-21T06:36:04;12.37;;;8.40;;
9142;SDS011;54072;47.410;8.446;2023-04-21T06:38:31;11.47;;;8.00;;
9142;SDS011;54072;47.410;8.446;2023-04-21T06:40:59;9.77;;;7.80;;
9142;SDS011;54072;47.410;8.446;2023-04-21T06:43:27;11.53;;;7.90;;
9142;SDS011;54072;47.410;8.446;2023-04-21T06:45:55;11.53;;;7.87;;
9142;SDS011;54072;47.410;8.446;2023-04-21T06:48:22;10.50;;;7.43;;
9142;SDS011;54072;47.410;8.446;2023-04-21T06:50:52;10.20;;;7.37;;
9142;SDS011;54072;47.410;8.446;2023-04-21T06:53:20;12.77;;;8.03;;
9142;SDS011;54072;47.410;8.446;2023-04-21T06:55:48;11.17;;;7.70;;
9142;SDS011;54072;47.410;8.446;2023-04-21T06:58:15;11.47;;;8.17;;
9142;SDS011;54072;47.410;8.446;2023-04-21T07:00:44;11.17;;;7.73;;
9142;SDS011;54072;47.410;8.446;2023-04-21T07:03:11;11.17;;;8.33;;
9142;SDS011;54072;47.410;8.446;2023-04-21T07:05:39;11.17;;;7.93;;
9142;SDS011;54072;47.410;8.446;2023-04-21T07:08:08;10.77;;;8.07;;
9142;SDS011;54072;47.410;8.446;2023-04-21T07:10:35;12.70;;;8.13;;
9142;SDS011;54072;47.410;8.446;2023-04-21T07:13:03;11.63;;;8.27;;
9142;SDS011;54072;47.410;8.446;2023-04-21T07:15:30;9.93;;;8.10;;
9142;SDS011;54072;47.410;8.446;2023-04-21T07:17:58;10.60;;;8.07;;
9142;SDS011;54072;47.410;8.446;2023-04-21T07:20:25;11.97;;;8.67;;
9142;SDS011;54072;47.410;8.446;2023-04-21T07:22:53;10.07;;;7.67;;
9142;SDS011;54072;47.410;8.446;2023-04-21T07:25:22;12.67;;;8.60;;
9142;SDS011;54072;47.410;8.446;2023-04-21T07:27:49;11.33;;;8.03;;
9142;SDS011;54072;47.410;8.446;2023-04-21T07:30:17;11.23;;;7.90;;
9142;SDS011;54072;47.410;8.446;2023-04-21T07:32:44;11.73;;;8.50;;
9142;SDS011;54072;47.410;8.446;2023-04-21T07:35:12;12.70;;;8.77;;
9142;SDS011;54072;47.410;8.446;2023-04-21T07:37:39;12.23;;;8.23;;
9142;SDS011;54072;47.410;8.446;2023-04-21T07:40:07;11.80;;;8.40;;
9142;SDS011;54072;47.410;8.446;2023-04-21T07:42:36;10.57;;;7.53;;
9142;SDS011;54072;47.410;8.446;2023-04-21T07:45:04;10.17;;;7.87;;
9142;SDS011;54072;47.410;8.446;2023-04-21T07:47:32;11.37;;;8.63;;
9142;SDS011;54072;47.410;8.446;2023-04-21T07:49:59;10.80;;;7.37;;
9142;SDS011;54072;47.410;8.446;2023-04-21T07:52:27;10.33;;;8.30;;
9142;SDS011;54072;47.410;8.446;2023-04-21T07:54:54;11.80;;;8.53;;
9142;SDS011;54072;47.410;8.446;2023-04-21T07:57:22;10.40;;;8.53;;
9142;SDS011;54072;47.410;8.446;2023-04-21T07:59:50;11.23;;;7.57;;
9142;SDS011;54072;47.410;8.446;2023-04-21T08:02:18;10.37;;;8.00;;
9142;SDS011;54072;47.410;8.446;2023-04-21T08:04:45;11.67;;;8.30;;
9142;SDS011;54072;47.410;8.446;2023-04-21T08:07:13;11.83;;;8.27;;
9142;SDS011;54072;47.410;8.446;2023-04-21T08:09:41;9.63;;;8.23;;
9142;SDS011;54072;47.410;8.446;2023-04-21T08:12:08;10.93;;;8.20;;
9142;SDS011;54072;47.410;8.446;2023-04-21T08:14:36;12.53;;;8.30;;
9142;SDS011;54072;47.410;8.446;2023-04-21T08:17:05;10.97;;;8.83;;
9142;SDS011;54072;47.410;8.446;2023-04-21T08:19:32;10.87;;;8.20;;
9142;SDS011;54072;47.410;8.446;2023-04-21T08:22:00;12.10;;;8.17;;
9142;SDS011;54072;47.410;8.446;2023-04-21T08:24:27;11.17;;;8.67;;
9142;SDS011;54072;47.410;8.446;2023-04-21T08:26:55;10.30;;;8.20;;
9142;SDS011;54072;47.410;8.446;2023-04-21T08:29:23;11.50;;;8.47;;
9142;SDS011;54072;47.410;8.446;2023-04-21T08:31:51;12.30;;;9.07;;
9142;SDS011;54072;47.410;8.446;2023-04-21T08:34:20;11.20;;;8.60;;
9142;SDS011;54072;47.410;8.446;2023-04-21T08:36:48;11.30;;;8.37;;
9142;SDS011;54072;47.410;8.446;2023-04-21T08:39:16;10.43;;;8.10;;
9142;SDS011;54072;47.410;8.446;2023-04-21T08:41:43;13.43;;;9.03;;
9142;SDS011;54072;47.410;8.446;2023-04-21T08:44:11;10.40;;;8.17;;
9142;SDS011;54072;47.410;8.446;2023-04-21T08:46:38;12.10;;;8.83;;
9142;SDS011;54072;47.410;8.446;2023-04-21T08:49:06;14.70;;;10.97;;
9142;SDS011;54072;47.410;8.446;2023-04-21T08:51:36;16.50;;;9.70;;
9142;SDS011;54072;47.410;8.446;2023-04-21T08:54:04;14.17;;;8.77;;
9142;SDS011;54072;47.410;8.446;2023-04-21T08:56:32;12.97;;;8.93;;
9142;SDS011;54072;47.410;8.446;2023-04-21T08:58:59;10.37;;;8.00;;
9142;SDS011;54072;47.410;8.446;2023-04-21T09:01:26;10.93;;;8.67;;
9142;SDS011;54072;47.410;8.446;2023-04-21T09:03:55;10.60;;;8.20;;
9142;SDS011;54072;47.410;8.446;2023-04-21T09:06:42;10.07;;;8.00;;
9142;SDS011;54072;47.410;8.446;2023-04-21T09:09:11;10.23;;;8.67;;
9142;SDS011;54072;47.410;8.446;2023-04-21T09:11:39;11.30;;;8.30;;
9142;SDS011;54072;47.410;8.446;2023-04-21T09:14:06;9.33;;;8.17;;
9142;SDS011;54072;47.410;8.446;2023-04-21T09:16:35;10.40;;;8.10;;
9142;SDS011;54072;47.410;8.446;2023-04-21T09:19:02;9.97;;;8.07;;
9142;SDS011;54072;47.410;8.446;2023-04-21T09:21:39;10.83;;;8.43;;
9142;SDS011;54072;47.410;8.446;2023-04-21T09:24:11;11.30;;;8.90;;
9142;SDS011;54072;47.410;8.446;2023-04-21T09:26:39;12.73;;;8.83;;
9142;SDS011;54072;47.410;8.446;2023-04-21T09:29:08;10.50;;;8.43;;
9142;SDS011;54072;47.410;8.446;2023-04-21T09:31:36;9.00;;;8.07;;
9142;SDS011;54072;47.410;8.446;2023-04-21T09:34:10;9.60;;;7.77;;
9142;SDS011;54072;47.410;8.446;2023-04-21T09:36:42;9.90;;;8.37;;
9142;SDS011;54072;47.410;8.446;2023-04-21T09:39:12;11.17;;;9.03;;
9142;SDS011;54072;47.410;8.446;2023-04-21T09:41:50;10.30;;;9.13;;
9142;SDS011;54072;47.410;8.446;2023-04-21T09:44:18;10.30;;;9.13;;
9142;SDS011;54072;47.410;8.446;2023-04-21T09:46:46;10.87;;;8.80;;
9142;SDS011;54072;47.410;8.446;2023-04-21T09:49:15;10.07;;;8.40;;
9142;SDS011;54072;47.410;8.446;2023-04-21T09:51:43;10.60;;;8.33;;
9142;SDS011;54072;47.410;8.446;2023-04-21T09:54:16;10.43;;;8.17;;
9142;SDS011;54072;47.410;8.446;2023-04-21T09:56:53;8.77;;;7.87;;
9142;SDS011;54072;47.410;8.446;2023-04-21T09:59:24;8.63;;;7.60;;
9142;SDS011;54072;47.410;8.446;2023-04-21T10:01:52;10.93;;;8.67;;
9142;SDS011;54072;47.410;8.446;2023-04-21T10:04:21;10.67;;;8.40;;
9142;SDS011;54072;47.410;8.446;2023-04-21T10:06:51;11.33;;;7.93;;
9142;SDS011;54072;47.410;8.446;2023-04-21T10:09:21;8.53;;;7.70;;
9142;SDS011;54072;47.410;8.446;2023-04-21T10:11:50;10.70;;;7.67;;
9142;SDS011;54072;47.410;8.446;2023-04-21T10:14:18;9.77;;;8.13;;
9142;SDS011;54072;47.410;8.446;2023-04-21T10:16:54;9.53;;;8.63;;
9142;SDS011;54072;47.410;8.446;2023-04-21T10:19:22;9.27;;;8.37;;
9142;SDS011;54072;47.410;8.446;2023-04-21T10:21:50;9.50;;;8.50;;
9142;SDS011;54072;47.410;8.446;2023-04-21T10:24:18;10.57;;;8.53;;
9142;SDS011;54072;47.410;8.446;2023-04-21T10:26:47;9.57;;;8.67;;
9142;SDS011;54072;47.410;8.446;2023-04-21T10:29:21;8.50;;;7.70;;
9142;SDS011;54072;47.410;8.446;2023-04-21T10:31:56;8.90;;;8.00;;
9142;SDS011;54072;47.410;8.446;2023-04-21T10:34:33;8.87;;;8.07;;
9142;SDS011;54072;47.410;8.446;2023-04-21T10:37:16;9.20;;;8.30;;
9142;SDS011;54072;47.410;8.446;2023-04-21T10:39:48;8.93;;;7.87;;
9142;SDS011;54072;47.410;8.446;2023-04-21T10:42:19;9.50;;;8.00;;
9142;SDS011;54072;47.410;8.446;2023-04-21T10:44:52;9.47;;;8.57;;
9142;SDS011;54072;47.410;8.446;2023-04-21T10:47:26;10.70;;;9.33;;
9142;SDS011;54072;47.410;8.446;2023-04-21T10:49:54;9.10;;;8.30;;
9142;SDS011;54072;47.410;8.446;2023-04-21T10:52:28;8.97;;;8.27;;
9142;SDS011;54072;47.410;8.446;2023-04-21T10:55:03;8.93;;;8.07;;
9142;SDS011;54072;47.410;8.446;2023-04-21T10:57:33;9.27;;;8.47;;
9142;SDS011;54072;47.410;8.446;2023-04-21T11:00:02;9.07;;;8.27;;
9142;SDS011;54072;47.410;8.446;2023-04-21T11:02:32;9.50;;;8.50;;
9142;SDS011;54072;47.410;8.446;2023-04-21T11:05:01;9.33;;;8.43;;
9142;SDS011;54072;47.410;8.446;2023-04-21T11:07:29;9.67;;;8.77;;
9142;SDS011;54072;47.410;8.446;2023-04-21T11:09:59;9.20;;;8.33;;
9142;SDS011;54072;47.410;8.446;2023-04-21T11:12:27;9.23;;;8.33;;
9142;SDS011;54072;47.410;8.446;2023-04-21T11:14:56;9.50;;;8.60;;
9142;SDS011;54072;47.410;8.446;2023-04-21T11:17:25;9.13;;;8.20;;
9142;SDS011;54072;47.410;8.446;2023-04-21T11:19:53;8.67;;;7.93;;
9142;SDS011;54072;47.410;8.446;2023-04-21T11:22:22;7.70;;;7.10;;
9142;SDS011;54072;47.410;8.446;2023-04-21T11:24:50;7.10;;;6.40;;
9142;SDS011;54072;47.410;8.446;2023-04-21T11:27:19;7.37;;;6.73;;
9142;SDS011;54072;47.410;8.446;2023-04-21T11:29:47;8.33;;;7.50;;
9142;SDS011;54072;47.410;8.446;2023-04-21T11:32:16;7.90;;;7.20;;
9142;SDS011;54072;47.410;8.446;2023-04-21T11:34:44;8.73;;;6.70;;
9142;SDS011;54072;47.410;8.446;2023-04-21T11:37:14;7.17;;;6.57;;
9142;SDS011;54072;47.410;8.446;2023-04-21T11:39:42;7.70;;;6.90;;
9142;SDS011;54072;47.410;8.446;2023-04-21T11:42:09;9.03;;;7.93;;
9142;SDS011;54072;47.410;8.446;2023-04-21T11:44:38;9.37;;;8.43;;
9142;SDS011;54072;47.410;8.446;2023-04-21T11:47:12;10.00;;;8.13;;
9142;SDS011;54072;47.410;8.446;2023-04-21T11:49:45;10.33;;;8.07;;
9142;SDS011;54072;47.410;8.446;2023-04-21T11:52:19;9.43;;;8.53;;
9142;SDS011;54072;47.410;8.446;2023-04-21T11:54:47;9.47;;;7.87;;
9142;SDS011;54072;47.410;8.446;2023-04-21T11:57:16;8.87;;;8.03;;
9142;SDS011;54072;47.410;8.446;2023-04-21T11:59:44;9.13;;;8.33;;
9142;SDS011;54072;47.410;8.446;2023-04-21T12:02:12;11.43;;;8.47;;
9142;SDS011;54072;47.410;8.446;2023-04-21T12:04:39;8.97;;;7.97;;
9142;SDS011;54072;47.410;8.446;2023-04-21T12:07:08;8.40;;;7.60;;
9142;SDS011;54072;47.410;8.446;2023-04-21T12:09:37;8.93;;;8.03;;
9142;SDS011;54072;47.410;8.446;2023-04-21T12:12:04;8.90;;;7.97;;
9142;SDS011;54072;47.410;8.446;2023-04-21T12:14:33;9.10;;;8.20;;
9142;SDS011;54072;47.410;8.446;2023-04-21T12:17:01;8.03;;;7.20;;
9142;SDS011;54072;47.410;8.446;2023-04-21T12:19:34;8.13;;;7.33;;
9142;SDS011;54072;47.410;8.446;2023-04-21T12:22:05;7.77;;;6.87;;
9142;SDS011;54072;47.410;8.446;2023-04-21T12:24:34;7.23;;;6.53;;
9142;SDS011;54072;47.410;8.446;2023-04-21T12:27:02;7.53;;;6.40;;
9142;SDS011;54072;47.410;8.446;2023-04-21T12:29:30;7.00;;;6.17;;
9142;SDS011;54072;47.410;8.446;2023-04-21T12:31:57;7.57;;;6.10;;
9142;SDS011;54072;47.410;8.446;2023-04-21T12:34:25;9.53;;;6.83;;
9142;SDS011;54072;47.410;8.446;2023-04-21T12:36:52;7.37;;;6.53;;
9142;SDS011;54072;47.410;8.446;2023-04-21T12:39:20;7.17;;;6.47;;
9142;SDS011;54072;47.410;8.446;2023-04-21T12:41:49;9.03;;;6.57;;
9142;SDS011;54072;47.410;8.446;2023-04-21T12:44:16;7.70;;;6.90;;
9142;SDS011;54072;47.410;8.446;2023-04-21T12:46:44;7.10;;;6.40;;
9142;SDS011;54072;47.410;8.446;2023-04-21T12:49:13;6.97;;;6.27;;
9142;SDS011;54072;47.410;8.446;2023-04-21T12:51:42;7.50;;;6.70;;
9142;SDS011;54072;47.410;8.446;2023-04-21T12:54:10;6.50;;;5.90;;
9142;SDS011;54072;47.410;8.446;2023-04-21T12:56:37;8.37;;;6.10;;
9142;SDS011;54072;47.410;8.446;2023-04-21T12:59:09;7.63;;;6.77;;
9142;SDS011;54072;47.410;8.446;2023-04-21T13:01:36;7.60;;;6.40;;
9142;SDS011;54072;47.410;8.446;2023-04-21T13:04:04;7.47;;;6.43;;
9142;SDS011;54072;47.410;8.446;2023-04-21T13:06:32;7.77;;;6.70;;
9142;SDS011;54072;47.410;8.446;2023-04-21T13:09:00;7.53;;;6.60;;
9142;SDS011;54072;47.410;8.446;2023-04-21T13:11:28;7.87;;;7.07;;
9142;SDS011;54072;47.410;8.446;2023-04-21T13:13:56;7.77;;;7.07;;
9142;SDS011;54072;47.410;8.446;2023-04-21T13:16:25;7.23;;;6.53;;
9142;SDS011;54072;47.410;8.446;2023-04-21T13:18:54;7.87;;;6.97;;
9142;SDS011;54072;47.410;8.446;2023-04-21T13:21:22;9.03;;;7.47;;
9142;SDS011;54072;47.410;8.446;2023-04-21T13:23:49;7.67;;;6.93;;
9142;SDS011;54072;47.410;8.446;2023-04-21T13:26:17;7.83;;;7.03;;
9142;SDS011;54072;47.410;8.446;2023-04-21T13:28:44;7.87;;;6.40;;
9142;SDS011;54072;47.410;8.446;2023-04-21T13:31:12;7.40;;;6.63;;
9142;SDS011;54072;47.410;8.446;2023-04-21T13:33:41;7.43;;;6.73;;
9142;SDS011;54072;47.410;8.446;2023-04-21T13:36:09;8.40;;;6.57;;
9142;SDS011;54072;47.410;8.446;2023-04-21T13:38:38;8.33;;;6.67;;
9142;SDS011;54072;47.410;8.446;2023-04-21T13:41:05;8.17;;;7.13;;
9142;SDS011;54072;47.410;8.446;2023-04-21T13:43:33;8.03;;;6.67;;
9142;SDS011;54072;47.410;8.446;2023-04-21T13:46:01;7.50;;;6.80;;
9142;SDS011;54072;47.410;8.446;2023-04-21T13:48:28;7.23;;;5.97;;
9142;SDS011;54072;47.410;8.446;2023-04-21T13:50:57;6.30;;;5.70;;
9142;SDS011;54072;47.410;8.446;2023-04-21T13:53:25;7.10;;;5.80;;
9142;SDS011;54072;47.410;8.446;2023-04-21T13:55:52;6.87;;;6.17;;
9142;SDS011;54072;47.410;8.446;2023-04-21T13:58:22;6.27;;;5.67;;
9142;SDS011;54072;47.410;8.446;2023-04-21T14:00:49;5.77;;;5.20;;
9142;SDS011;54072;47.410;8.446;2023-04-21T14:03:17;6.03;;;5.40;;
9142;SDS011;54072;47.410;8.446;2023-04-21T14:05:44;5.87;;;5.37;;
9142;SDS011;54072;47.410;8.446;2023-04-21T14:08:13;5.47;;;4.97;;
9142;SDS011;54072;47.410;8.446;2023-04-21T14:10:41;5.03;;;4.53;;
9142;SDS011;54072;47.410;8.446;2023-04-21T14:13:08;5.33;;;4.83;;
9142;SDS011;54072;47.410;8.446;2023-04-21T14:15:38;5.77;;;4.80;;
9142;SDS011;54072;47.410;8.446;2023-04-21T14:18:05;5.30;;;4.80;;
9142;SDS011;54072;47.410;8.446;2023-04-21T14:20:33;5.27;;;4.77;;
9142;SDS011;54072;47.410;8.446;2023-04-21T14:23:01;6.53;;;5.20;;
9142;SDS011;54072;47.410;8.446;2023-04-21T14:25:30;6.80;;;5.10;;
9142;SDS011;54072;47.410;8.446;2023-04-21T14:27:57;5.93;;;5.33;;
9142;SDS011;54072;47.410;8.446;2023-04-21T14:30:25;5.90;;;5.30;;
9142;SDS011;54072;47.410;8.446;2023-04-21T14:32:52;6.17;;;5.50;;
9142;SDS011;54072;47.410;8.446;2023-04-21T14:35:20;8.17;;;5.30;;
9142;SDS011;54072;47.410;8.446;2023-04-21T14:37:47;5.70;;;5.13;;
9142;SDS011;54072;47.410;8.446;2023-04-21T14:40:14;5.20;;;4.70;;
9142;SDS011;54072;47.410;8.446;2023-04-21T14:42:43;4.50;;;4.10;;
9142;SDS011;54072;47.410;8.446;2023-04-21T14:45:11;6.13;;;4.13;;
9142;SDS011;54072;47.410;8.446;2023-04-21T14:47:38;4.90;;;4.23;;
9142;SDS011;54072;47.410;8.446;2023-04-21T14:50:06;5.90;;;4.40;;
9142;SDS011;54072;47.410;8.446;2023-04-21T14:52:34;4.33;;;4.03;;
9142;SDS011;54072;47.410;8.446;2023-04-21T14:55:02;4.27;;;3.87;;
9142;SDS011;54072;47.410;8.446;2023-04-21T14:57:29;5.33;;;4.87;;